sensor_id;sensor_type;location;lat;lon;timestamp;P1;durP1;ratioP1;P2;durP2;ratioP2
55090;SDS011;40985;53.180;5.800;2022-09-09T00:02:21;15.98;;;10.23;;
55090;SDS011;40985;53.180;5.800;2022-09-09T00:10:22;13.38;;;10.82;;
55090;SDS011;40985;53.180;5.800;2022-09-09T00:18:42;13.85;;;9.50;;
55090;SDS011;40985;53.180;5.800;2022-09-09T00:21:47;11.95;;;9.13;;
55090;SDS011;40985;53.180;5.800;2022-09-09T00:24:39;15.02;;;10.55;;
55090;SDS011;40985;53.180;5.800;2022-09-09T00:30:16;13.38;;;10.45;;
55090;SDS011;40985;53.180;5.800;2022-09-09T00:32:44;13.15;;;10.90;;
55090;SDS011;40985;53.180;5.800;2022-09-09T00:35:14;16.08;;;10.75;;
55090;SDS011;40985;53.180;5.800;2022-09-09T00:37:51;16.85;;;11.32;;
55090;SDS011;40985;53.180;5.800;2022-09-09T00:40:24;13.80;;;9.05;;
55090;SDS011;40985;53.180;5.800;2022-09-09T00:51:27;16.80;;;12.02;;
55090;SDS011;40985;53.180;5.800;2022-09-09T00:56:36;12.90;;;11.52;;
55090;SDS011;40985;53.180;5.800;2022-09-09T01:01:43;18.40;;;12.27;;
55090;SDS011;40985;53.180;5.800;2022-09-09T01:04:11;16.15;;;11.40;;
55090;SDS011;40985;53.180;5.800;2022-09-09T01:06:41;13.45;;;11.95;;
55090;SDS011;40985;53.180;5.800;2022-09-09T01:11:55;13.32;;;11.23;;
55090;SDS011;40985;53.180;5.800;2022-09-09T01:17:19;22.35;;;12.20;;
55090;SDS011;40985;53.180;5.800;2022-09-09T01:28:50;17.08;;;12.77;;
55090;SDS011;40985;53.180;5.800;2022-09-09T01:31:26;14.52;;;12.30;;
55090;SDS011;40985;53.180;5.800;2022-09-09T01:33:57;15.90;;;12.20;;
55090;SDS011;40985;53.180;5.800;2022-09-09T01:36:25;18.15;;;11.68;;
55090;SDS011;40985;53.180;5.800;2022-09-09T01:39:11;16.63;;;11.57;;
55090;SDS011;40985;53.180;5.800;2022-09-09T01:41:38;13.98;;;11.05;;
55090;SDS011;40985;53.180;5.800;2022-09-09T01:44:04;13.15;;;11.38;;
55090;SDS011;40985;53.180;5.800;2022-09-09T01:46:31;14.38;;;12.18;;
55090;SDS011;40985;53.180;5.800;2022-09-09T01:48:56;13.55;;;10.68;;
55090;SDS011;40985;53.180;5.800;2022-09-09T01:51:23;15.43;;;10.27;;
55090;SDS011;40985;53.180;5.800;2022-09-09T01:53:49;14.27;;;10.98;;
55090;SDS011;40985;53.180;5.800;2022-09-09T01:58:59;13.43;;;10.63;;
55090;SDS011;40985;53.180;5.800;2022-09-09T02:01:56;12.85;;;10.68;;
55090;SDS011;40985;53.180;5.800;2022-09-09T02:04:48;14.15;;;11.57;;
55090;SDS011;40985;53.180;5.800;2022-09-09T02:10:12;14.45;;;11.82;;
55090;SDS011;40985;53.180;5.800;2022-09-09T02:12:42;15.55;;;11.13;;
55090;SDS011;40985;53.180;5.800;2022-09-09T02:16:12;14.60;;;11.88;;
55090;SDS011;40985;53.180;5.800;2022-09-09T02:18:10;16.23;;;11.27;;
55090;SDS011;40985;53.180;5.800;2022-09-09T02:20:38;16.83;;;12.75;;
55090;SDS011;40985;53.180;5.800;2022-09-09T02:23:06;17.38;;;12.10;;
55090;SDS011;40985;53.180;5.800;2022-09-09T02:25:35;16.23;;;11.48;;
55090;SDS011;40985;53.180;5.800;2022-09-09T02:28:03;15.00;;;11.50;;
55090;SDS011;40985;53.180;5.800;2022-09-09T02:30:32;17.08;;;12.85;;
55090;SDS011;40985;53.180;5.800;2022-09-09T02:33:00;15.27;;;11.52;;
55090;SDS011;40985;53.180;5.800;2022-09-09T02:35:27;15.68;;;11.27;;
55090;SDS011;40985;53.180;5.800;2022-09-09T02:37:56;18.65;;;11.50;;
55090;SDS011;40985;53.180;5.800;2022-09-09T02:40:26;17.33;;;11.38;;
55090;SDS011;40985;53.180;5.800;2022-09-09T02:42:53;13.90;;;10.77;;
55090;SDS011;40985;53.180;5.800;2022-09-09T02:45:23;14.13;;;11.95;;
55090;SDS011;40985;53.180;5.800;2022-09-09T02:50:33;17.67;;;11.68;;
55090;SDS011;40985;53.180;5.800;2022-09-09T02:55:59;12.73;;;10.80;;
55090;SDS011;40985;53.180;5.800;2022-09-09T02:58:34;14.73;;;12.30;;
55090;SDS011;40985;53.180;5.800;2022-09-09T03:01:01;16.63;;;11.10;;
55090;SDS011;40985;53.180;5.800;2022-09-09T03:03:27;16.45;;;11.90;;
55090;SDS011;40985;53.180;5.800;2022-09-09T03:05:54;15.25;;;12.77;;
55090;SDS011;40985;53.180;5.800;2022-09-09T03:08:19;15.93;;;11.70;;
55090;SDS011;40985;53.180;5.800;2022-09-09T03:10:45;15.30;;;11.48;;
55090;SDS011;40985;53.180;5.800;2022-09-09T03:13:11;18.35;;;11.73;;
55090;SDS011;40985;53.180;5.800;2022-09-09T03:15:40;22.73;;;13.75;;
55090;SDS011;40985;53.180;5.800;2022-09-09T03:18:05;18.10;;;12.88;;
55090;SDS011;40985;53.180;5.800;2022-09-09T03:20:31;18.13;;;12.00;;
55090;SDS011;40985;53.180;5.800;2022-09-09T03:22:58;13.77;;;11.20;;
55090;SDS011;40985;53.180;5.800;2022-09-09T03:25:25;18.70;;;12.18;;
55090;SDS011;40985;53.180;5.800;2022-09-09T03:27:51;31.55;;;14.27;;
55090;SDS011;40985;53.180;5.800;2022-09-09T03:30:23;15.93;;;13.02;;
55090;SDS011;40985;53.180;5.800;2022-09-09T03:32:51;15.13;;;11.50;;
55090;SDS011;40985;53.180;5.800;2022-09-09T03:35:17;15.05;;;12.23;;
55090;SDS011;40985;53.180;5.800;2022-09-09T03:37:43;18.60;;;12.77;;
55090;SDS011;40985;53.180;5.800;2022-09-09T03:40:09;20.15;;;13.52;;
55090;SDS011;40985;53.180;5.800;2022-09-09T03:42:35;21.38;;;12.95;;
55090;SDS011;40985;53.180;5.800;2022-09-09T03:45:06;20.58;;;13.38;;
55090;SDS011;40985;53.180;5.800;2022-09-09T03:47:34;15.88;;;11.50;;
55090;SDS011;40985;53.180;5.800;2022-09-09T03:49:59;19.25;;;13.27;;
55090;SDS011;40985;53.180;5.800;2022-09-09T03:52:25;19.38;;;11.55;;
55090;SDS011;40985;53.180;5.800;2022-09-09T03:54:52;15.52;;;11.50;;
55090;SDS011;40985;53.180;5.800;2022-09-09T03:57:19;16.45;;;11.23;;
55090;SDS011;40985;53.180;5.800;2022-09-09T03:59:45;13.05;;;10.25;;
55090;SDS011;40985;53.180;5.800;2022-09-09T04:02:10;18.48;;;11.68;;
55090;SDS011;40985;53.180;5.800;2022-09-09T04:04:36;20.60;;;11.70;;
55090;SDS011;40985;53.180;5.800;2022-09-09T04:07:02;12.50;;;10.00;;
55090;SDS011;40985;53.180;5.800;2022-09-09T04:09:28;16.13;;;10.85;;
55090;SDS011;40985;53.180;5.800;2022-09-09T04:11:53;17.05;;;10.63;;
55090;SDS011;40985;53.180;5.800;2022-09-09T04:14:20;17.25;;;11.38;;
55090;SDS011;40985;53.180;5.800;2022-09-09T04:16:46;12.18;;;10.15;;
55090;SDS011;40985;53.180;5.800;2022-09-09T04:19:12;15.60;;;9.73;;
55090;SDS011;40985;53.180;5.800;2022-09-09T04:21:41;16.73;;;10.57;;
55090;SDS011;40985;53.180;5.800;2022-09-09T04:24:07;13.35;;;9.40;;
55090;SDS011;40985;53.180;5.800;2022-09-09T04:26:34;15.68;;;10.18;;
55090;SDS011;40985;53.180;5.800;2022-09-09T04:29:01;10.90;;;8.45;;
55090;SDS011;40985;53.180;5.800;2022-09-09T04:31:32;13.75;;;9.30;;
55090;SDS011;40985;53.180;5.800;2022-09-09T04:33:57;15.23;;;9.43;;
55090;SDS011;40985;53.180;5.800;2022-09-09T04:36:23;14.93;;;9.88;;
55090;SDS011;40985;53.180;5.800;2022-09-09T04:38:49;14.00;;;10.07;;
55090;SDS011;40985;53.180;5.800;2022-09-09T04:41:15;13.15;;;9.07;;
55090;SDS011;40985;53.180;5.800;2022-09-09T04:43:41;17.88;;;10.30;;
55090;SDS011;40985;53.180;5.800;2022-09-09T04:46:07;16.45;;;9.80;;
55090;SDS011;40985;53.180;5.800;2022-09-09T04:48:33;16.15;;;10.25;;
55090;SDS011;40985;53.180;5.800;2022-09-09T04:51:00;17.80;;;10.57;;
55090;SDS011;40985;53.180;5.800;2022-09-09T04:53:29;17.60;;;10.23;;
55090;SDS011;40985;53.180;5.800;2022-09-09T04:56:05;17.23;;;10.60;;
55090;SDS011;40985;53.180;5.800;2022-09-09T04:58:36;17.85;;;10.00;;
55090;SDS011;40985;53.180;5.800;2022-09-09T05:01:06;17.92;;;9.95;;
55090;SDS011;40985;53.180;5.800;2022-09-09T05:03:34;13.88;;;9.60;;
55090;SDS011;40985;53.180;5.800;2022-09-09T05:06:16;14.00;;;9.77;;
55090;SDS011;40985;53.180;5.800;2022-09-09T05:08:43;16.70;;;9.60;;
55090;SDS011;40985;53.180;5.800;2022-09-09T05:13:51;17.52;;;8.88;;
55090;SDS011;40985;53.180;5.800;2022-09-09T05:16:18;19.73;;;9.90;;
55090;SDS011;40985;53.180;5.800;2022-09-09T05:18:46;16.63;;;9.90;;
55090;SDS011;40985;53.180;5.800;2022-09-09T05:21:12;20.35;;;9.73;;
55090;SDS011;40985;53.180;5.800;2022-09-09T05:23:39;17.30;;;10.40;;
55090;SDS011;40985;53.180;5.800;2022-09-09T05:26:05;17.60;;;10.57;;
55090;SDS011;40985;53.180;5.800;2022-09-09T05:28:33;16.42;;;10.25;;
55090;SDS011;40985;53.180;5.800;2022-09-09T05:31:01;20.70;;;10.90;;
55090;SDS011;40985;53.180;5.800;2022-09-09T05:33:30;17.27;;;10.43;;
55090;SDS011;40985;53.180;5.800;2022-09-09T05:36:39;19.33;;;11.18;;
55090;SDS011;40985;53.180;5.800;2022-09-09T05:38:46;17.60;;;10.27;;
55090;SDS011;40985;53.180;5.800;2022-09-09T05:41:13;19.38;;;11.35;;
55090;SDS011;40985;53.180;5.800;2022-09-09T05:43:42;21.92;;;11.95;;
55090;SDS011;40985;53.180;5.800;2022-09-09T05:46:10;21.00;;;12.15;;
55090;SDS011;40985;53.180;5.800;2022-09-09T05:48:38;21.48;;;11.75;;
55090;SDS011;40985;53.180;5.800;2022-09-09T05:51:06;20.23;;;12.63;;
55090;SDS011;40985;53.180;5.800;2022-09-09T05:53:35;20.80;;;12.73;;
55090;SDS011;40985;53.180;5.800;2022-09-09T05:58:32;21.80;;;13.38;;
55090;SDS011;40985;53.180;5.800;2022-09-09T06:01:09;19.45;;;13.35;;
55090;SDS011;40985;53.180;5.800;2022-09-09T06:03:36;23.63;;;14.85;;
55090;SDS011;40985;53.180;5.800;2022-09-09T06:06:04;26.15;;;14.52;;
55090;SDS011;40985;53.180;5.800;2022-09-09T06:08:32;26.58;;;14.63;;
55090;SDS011;40985;53.180;5.800;2022-09-09T06:11:03;24.73;;;14.73;;
55090;SDS011;40985;53.180;5.800;2022-09-09T06:13:33;27.42;;;16.35;;
55090;SDS011;40985;53.180;5.800;2022-09-09T06:16:00;20.27;;;14.30;;
55090;SDS011;40985;53.180;5.800;2022-09-09T06:18:26;26.13;;;16.42;;
55090;SDS011;40985;53.180;5.800;2022-09-09T06:20:53;24.10;;;15.25;;
55090;SDS011;40985;53.180;5.800;2022-09-09T06:23:23;26.83;;;15.98;;
55090;SDS011;40985;53.180;5.800;2022-09-09T06:25:49;23.95;;;16.20;;
55090;SDS011;40985;53.180;5.800;2022-09-09T06:28:15;23.42;;;14.80;;
55090;SDS011;40985;53.180;5.800;2022-09-09T06:30:41;22.30;;;14.70;;
55090;SDS011;40985;53.180;5.800;2022-09-09T06:33:07;22.73;;;13.73;;
55090;SDS011;40985;53.180;5.800;2022-09-09T06:35:34;22.77;;;13.30;;
55090;SDS011;40985;53.180;5.800;2022-09-09T06:38:00;20.88;;;13.95;;
55090;SDS011;40985;53.180;5.800;2022-09-09T06:40:26;18.63;;;13.40;;
55090;SDS011;40985;53.180;5.800;2022-09-09T06:42:51;19.05;;;12.45;;
55090;SDS011;40985;53.180;5.800;2022-09-09T06:45:17;21.30;;;13.13;;
55090;SDS011;40985;53.180;5.800;2022-09-09T06:47:43;19.55;;;13.07;;
55090;SDS011;40985;53.180;5.800;2022-09-09T06:50:09;17.92;;;12.50;;
55090;SDS011;40985;53.180;5.800;2022-09-09T06:52:36;16.75;;;13.23;;
55090;SDS011;40985;53.180;5.800;2022-09-09T06:55:02;20.90;;;14.27;;
55090;SDS011;40985;53.180;5.800;2022-09-09T06:57:28;19.40;;;13.50;;
55090;SDS011;40985;53.180;5.800;2022-09-09T06:59:54;16.92;;;12.90;;
55090;SDS011;40985;53.180;5.800;2022-09-09T07:02:20;18.63;;;12.02;;
55090;SDS011;40985;53.180;5.800;2022-09-09T07:04:46;17.95;;;12.13;;
55090;SDS011;40985;53.180;5.800;2022-09-09T07:07:12;17.30;;;10.73;;
55090;SDS011;40985;53.180;5.800;2022-09-09T07:09:40;17.98;;;12.10;;
55090;SDS011;40985;53.180;5.800;2022-09-09T07:12:06;13.00;;;10.50;;
55090;SDS011;40985;53.180;5.800;2022-09-09T07:14:32;14.10;;;10.65;;
55090;SDS011;40985;53.180;5.800;2022-09-09T07:16:59;17.55;;;11.15;;
55090;SDS011;40985;53.180;5.800;2022-09-09T07:19:25;15.85;;;10.25;;
55090;SDS011;40985;53.180;5.800;2022-09-09T07:21:51;16.02;;;11.18;;
55090;SDS011;40985;53.180;5.800;2022-09-09T07:24:16;14.95;;;10.05;;
55090;SDS011;40985;53.180;5.800;2022-09-09T07:26:42;17.27;;;10.32;;
55090;SDS011;40985;53.180;5.800;2022-09-09T07:29:09;13.68;;;9.48;;
55090;SDS011;40985;53.180;5.800;2022-09-09T07:31:38;15.48;;;9.73;;
55090;SDS011;40985;53.180;5.800;2022-09-09T07:34:05;17.20;;;9.75;;
55090;SDS011;40985;53.180;5.800;2022-09-09T07:36:32;12.68;;;8.95;;
55090;SDS011;40985;53.180;5.800;2022-09-09T07:39:01;12.45;;;9.57;;
55090;SDS011;40985;53.180;5.800;2022-09-09T07:41:31;16.35;;;11.13;;
55090;SDS011;40985;53.180;5.800;2022-09-09T07:43:59;16.42;;;10.27;;
55090;SDS011;40985;53.180;5.800;2022-09-09T07:46:29;16.90;;;10.00;;
55090;SDS011;40985;53.180;5.800;2022-09-09T07:48:55;13.82;;;9.50;;
55090;SDS011;40985;53.180;5.800;2022-09-09T07:51:26;12.80;;;8.75;;
55090;SDS011;40985;53.180;5.800;2022-09-09T07:54:01;14.10;;;8.40;;
55090;SDS011;40985;53.180;5.800;2022-09-09T07:56:29;12.90;;;7.78;;
55090;SDS011;40985;53.180;5.800;2022-09-09T07:58:55;10.70;;;7.95;;
55090;SDS011;40985;53.180;5.800;2022-09-09T08:01:26;8.98;;;7.88;;
55090;SDS011;40985;53.180;5.800;2022-09-09T08:04:01;11.32;;;7.70;;
55090;SDS011;40985;53.180;5.800;2022-09-09T08:06:37;10.50;;;7.43;;
55090;SDS011;40985;53.180;5.800;2022-09-09T08:09:05;9.50;;;6.63;;
55090;SDS011;40985;53.180;5.800;2022-09-09T08:11:31;8.75;;;6.95;;
55090;SDS011;40985;53.180;5.800;2022-09-09T08:13:58;9.05;;;6.80;;
55090;SDS011;40985;53.180;5.800;2022-09-09T08:16:28;11.32;;;6.90;;
55090;SDS011;40985;53.180;5.800;2022-09-09T08:18:55;9.10;;;6.65;;
55090;SDS011;40985;53.180;5.800;2022-09-09T08:21:22;12.93;;;6.97;;
55090;SDS011;40985;53.180;5.800;2022-09-09T08:23:51;10.48;;;6.50;;
55090;SDS011;40985;53.180;5.800;2022-09-09T08:26:19;7.30;;;6.13;;
55090;SDS011;40985;53.180;5.800;2022-09-09T08:29:00;9.05;;;6.18;;
55090;SDS011;40985;53.180;5.800;2022-09-09T08:31:29;8.15;;;6.25;;
55090;SDS011;40985;53.180;5.800;2022-09-09T08:34:00;10.15;;;6.43;;
55090;SDS011;40985;53.180;5.800;2022-09-09T08:36:28;8.23;;;5.72;;
55090;SDS011;40985;53.180;5.800;2022-09-09T08:38:56;7.85;;;5.70;;
55090;SDS011;40985;53.180;5.800;2022-09-09T08:44:22;8.45;;;5.03;;
55090;SDS011;40985;53.180;5.800;2022-09-09T08:52:53;9.25;;;4.68;;
55090;SDS011;40985;53.180;5.800;2022-09-09T08:58:29;5.70;;;2.75;;
55090;SDS011;40985;53.180;5.800;2022-09-09T09:11:56;4.72;;;1.92;;
55090;SDS011;40985;53.180;5.800;2022-09-09T09:14:26;5.43;;;2.45;;
55090;SDS011;40985;53.180;5.800;2022-09-09T09:19:38;7.47;;;2.60;;
55090;SDS011;40985;53.180;5.800;2022-09-09T09:22:19;5.18;;;2.33;;
55090;SDS011;40985;53.180;5.800;2022-09-09T09:24:55;6.70;;;2.42;;
55090;SDS011;40985;53.180;5.800;2022-09-09T09:30:23;6.18;;;2.33;;
55090;SDS011;40985;53.180;5.800;2022-09-09T09:32:58;7.70;;;2.40;;
55090;SDS011;40985;53.180;5.800;2022-09-09T09:35:31;7.63;;;1.90;;
55090;SDS011;40985;53.180;5.800;2022-09-09T09:37:57;4.70;;;1.42;;
55090;SDS011;40985;53.180;5.800;2022-09-09T09:40:26;8.15;;;1.83;;
55090;SDS011;40985;53.180;5.800;2022-09-09T09:42:56;5.22;;;1.58;;
55090;SDS011;40985;53.180;5.800;2022-09-09T09:45:34;7.93;;;1.70;;
55090;SDS011;40985;53.180;5.800;2022-09-09T09:48:11;5.40;;;2.10;;
55090;SDS011;40985;53.180;5.800;2022-09-09T09:50:56;7.38;;;1.30;;
55090;SDS011;40985;53.180;5.800;2022-09-09T09:53:36;5.05;;;0.95;;
55090;SDS011;40985;53.180;5.800;2022-09-09T09:56:04;7.75;;;1.30;;
55090;SDS011;40985;53.180;5.800;2022-09-09T09:58:38;6.32;;;0.93;;
55090;SDS011;40985;53.180;5.800;2022-09-09T10:01:27;4.25;;;0.90;;
55090;SDS011;40985;53.180;5.800;2022-09-09T10:04:01;4.75;;;0.73;;
55090;SDS011;40985;53.180;5.800;2022-09-09T10:06:41;4.47;;;0.90;;
55090;SDS011;40985;53.180;5.800;2022-09-09T10:17:54;4.93;;;0.50;;
55090;SDS011;40985;53.180;5.800;2022-09-09T10:23:18;7.43;;;0.80;;
55090;SDS011;40985;53.180;5.800;2022-09-09T10:28:49;6.07;;;0.60;;
55090;SDS011;40985;53.180;5.800;2022-09-09T10:34:50;4.68;;;0.50;;
55090;SDS011;40985;53.180;5.800;2022-09-09T10:41:19;5.60;;;0.40;;
55090;SDS011;40985;53.180;5.800;2022-09-09T10:51:17;4.28;;;0.65;;
55090;SDS011;40985;53.180;5.800;2022-09-09T10:56:57;3.03;;;0.40;;
55090;SDS011;40985;53.180;5.800;2022-09-09T10:59:38;4.55;;;0.70;;
55090;SDS011;40985;53.180;5.800;2022-09-09T11:02:14;9.95;;;0.38;;
55090;SDS011;40985;53.180;5.800;2022-09-09T11:07:39;3.53;;;0.52;;
55090;SDS011;40985;53.180;5.800;2022-09-09T11:10:17;4.65;;;0.50;;
55090;SDS011;40985;53.180;5.800;2022-09-09T11:13:06;3.20;;;0.35;;
55090;SDS011;40985;53.180;5.800;2022-09-09T11:22:07;3.70;;;0.40;;
55090;SDS011;40985;53.180;5.800;2022-09-09T11:24:58;5.10;;;0.40;;
55090;SDS011;40985;53.180;5.800;2022-09-09T11:31:00;3.93;;;0.40;;
55090;SDS011;40985;53.180;5.800;2022-09-09T11:41:48;4.32;;;0.30;;
55090;SDS011;40985;53.180;5.800;2022-09-09T11:44:19;3.17;;;0.32;;
55090;SDS011;40985;53.180;5.800;2022-09-09T11:46:52;5.13;;;0.40;;
55090;SDS011;40985;53.180;5.800;2022-09-09T11:52:36;4.80;;;0.70;;
55090;SDS011;40985;53.180;5.800;2022-09-09T11:55:12;7.18;;;0.40;;
55090;SDS011;40985;53.180;5.800;2022-09-09T11:58:16;2.38;;;0.30;;
55090;SDS011;40985;53.180;5.800;2022-09-09T12:00:47;4.75;;;0.50;;
55090;SDS011;40985;53.180;5.800;2022-09-09T12:06:08;2.90;;;0.20;;
55090;SDS011;40985;53.180;5.800;2022-09-09T12:08:50;4.25;;;0.68;;
55090;SDS011;40985;53.180;5.800;2022-09-09T12:11:26;4.95;;;0.45;;
55090;SDS011;40985;53.180;5.800;2022-09-09T12:13:57;7.90;;;0.55;;
55090;SDS011;40985;53.180;5.800;2022-09-09T12:16:29;3.60;;;0.57;;
55090;SDS011;40985;53.180;5.800;2022-09-09T12:19:19;4.88;;;0.40;;
55090;SDS011;40985;53.180;5.800;2022-09-09T12:21:52;2.90;;;0.50;;
55090;SDS011;40985;53.180;5.800;2022-09-09T12:24:49;6.35;;;0.52;;
55090;SDS011;40985;53.180;5.800;2022-09-09T12:27:24;4.80;;;0.47;;
55090;SDS011;40985;53.180;5.800;2022-09-09T12:32:42;5.78;;;0.40;;
55090;SDS011;40985;53.180;5.800;2022-09-09T12:35:14;3.00;;;0.40;;
55090;SDS011;40985;53.180;5.800;2022-09-09T12:37:52;8.68;;;0.50;;
55090;SDS011;40985;53.180;5.800;2022-09-09T12:40:27;3.00;;;0.40;;
55090;SDS011;40985;53.180;5.800;2022-09-09T12:42:54;4.45;;;0.50;;
55090;SDS011;40985;53.180;5.800;2022-09-09T12:45:22;4.03;;;0.40;;
55090;SDS011;40985;53.180;5.800;2022-09-09T12:47:51;4.00;;;0.57;;
55090;SDS011;40985;53.180;5.800;2022-09-09T12:50:22;3.40;;;0.40;;
55090;SDS011;40985;53.180;5.800;2022-09-09T12:55:49;2.60;;;0.30;;
55090;SDS011;40985;53.180;5.800;2022-09-09T12:58:17;7.40;;;0.77;;
55090;SDS011;40985;53.180;5.800;2022-09-09T13:00:54;2.80;;;0.52;;
55090;SDS011;40985;53.180;5.800;2022-09-09T13:03:22;3.17;;;0.50;;
55090;SDS011;40985;53.180;5.800;2022-09-09T13:05:50;4.78;;;0.35;;
55090;SDS011;40985;53.180;5.800;2022-09-09T13:08:16;4.38;;;0.45;;
55090;SDS011;40985;53.180;5.800;2022-09-09T13:10:59;4.80;;;0.47;;
55090;SDS011;40985;53.180;5.800;2022-09-09T13:13:38;6.15;;;0.50;;
55090;SDS011;40985;53.180;5.800;2022-09-09T13:16:06;3.15;;;0.40;;
55090;SDS011;40985;53.180;5.800;2022-09-09T13:18:51;6.25;;;0.98;;
55090;SDS011;40985;53.180;5.800;2022-09-09T13:21:18;4.63;;;0.40;;
55090;SDS011;40985;53.180;5.800;2022-09-09T13:23:48;4.63;;;0.40;;
55090;SDS011;40985;53.180;5.800;2022-09-09T13:26:25;1.92;;;0.22;;
55090;SDS011;40985;53.180;5.800;2022-09-09T13:28:54;1.38;;;0.20;;
55090;SDS011;40985;53.180;5.800;2022-09-09T13:31:33;1.10;;;0.20;;
55090;SDS011;40985;53.180;5.800;2022-09-09T13:34:10;1.88;;;0.17;;
55090;SDS011;40985;53.180;5.800;2022-09-09T13:36:52;5.65;;;0.35;;
55090;SDS011;40985;53.180;5.800;2022-09-09T13:39:22;2.65;;;0.22;;
55090;SDS011;40985;53.180;5.800;2022-09-09T13:41:48;2.63;;;0.20;;
55090;SDS011;40985;53.180;5.800;2022-09-09T13:44:17;0.73;;;0.10;;
55090;SDS011;40985;53.180;5.800;2022-09-09T13:46:58;0.73;;;0.10;;
55090;SDS011;40985;53.180;5.800;2022-09-09T13:49:44;3.97;;;0.40;;
55090;SDS011;40985;53.180;5.800;2022-09-09T13:52:14;1.75;;;0.30;;
55090;SDS011;40985;53.180;5.800;2022-09-09T13:54:46;5.95;;;1.00;;
55090;SDS011;40985;53.180;5.800;2022-09-09T13:57:17;3.40;;;0.40;;
55090;SDS011;40985;53.180;5.800;2022-09-09T13:59:50;4.50;;;0.52;;
55090;SDS011;40985;53.180;5.800;2022-09-09T14:02:18;4.07;;;0.43;;
55090;SDS011;40985;53.180;5.800;2022-09-09T14:04:44;2.15;;;0.43;;
55090;SDS011;40985;53.180;5.800;2022-09-09T14:07:14;3.13;;;0.40;;
55090;SDS011;40985;53.180;5.800;2022-09-09T14:09:42;2.22;;;0.40;;
55090;SDS011;40985;53.180;5.800;2022-09-09T14:12:11;1.67;;;0.20;;
55090;SDS011;40985;53.180;5.800;2022-09-09T14:14:37;2.45;;;0.20;;
55090;SDS011;40985;53.180;5.800;2022-09-09T14:17:03;1.73;;;0.25;;
55090;SDS011;40985;53.180;5.800;2022-09-09T14:19:29;1.90;;;0.28;;
55090;SDS011;40985;53.180;5.800;2022-09-09T14:21:56;1.77;;;0.20;;
55090;SDS011;40985;53.180;5.800;2022-09-09T14:24:22;1.65;;;0.28;;
55090;SDS011;40985;53.180;5.800;2022-09-09T14:26:48;3.22;;;0.30;;
55090;SDS011;40985;53.180;5.800;2022-09-09T14:29:14;2.60;;;0.30;;
55090;SDS011;40985;53.180;5.800;2022-09-09T14:31:40;3.42;;;0.30;;
55090;SDS011;40985;53.180;5.800;2022-09-09T14:34:05;1.40;;;0.30;;
55090;SDS011;40985;53.180;5.800;2022-09-09T14:36:31;2.65;;;0.30;;
55090;SDS011;40985;53.180;5.800;2022-09-09T14:38:57;1.42;;;0.25;;
55090;SDS011;40985;53.180;5.800;2022-09-09T14:41:23;2.15;;;0.20;;
55090;SDS011;40985;53.180;5.800;2022-09-09T14:43:50;3.38;;;0.30;;
55090;SDS011;40985;53.180;5.800;2022-09-09T14:46:17;1.58;;;0.20;;
55090;SDS011;40985;53.180;5.800;2022-09-09T14:48:44;2.55;;;0.20;;
55090;SDS011;40985;53.180;5.800;2022-09-09T14:51:13;1.67;;;0.20;;
55090;SDS011;40985;53.180;5.800;2022-09-09T14:53:41;2.03;;;0.20;;
55090;SDS011;40985;53.180;5.800;2022-09-09T14:56:07;2.88;;;0.50;;
55090;SDS011;40985;53.180;5.800;2022-09-09T14:58:35;3.40;;;0.40;;
55090;SDS011;40985;53.180;5.800;2022-09-09T15:01:10;1.83;;;0.20;;
55090;SDS011;40985;53.180;5.800;2022-09-09T15:03:38;0.50;;;0.20;;
55090;SDS011;40985;53.180;5.800;2022-09-09T15:06:11;1.10;;;0.20;;
55090;SDS011;40985;53.180;5.800;2022-09-09T15:08:40;2.45;;;0.30;;
55090;SDS011;40985;53.180;5.800;2022-09-09T15:11:07;4.13;;;0.30;;
55090;SDS011;40985;53.180;5.800;2022-09-09T15:13:33;6.38;;;0.60;;
55090;SDS011;40985;53.180;5.800;2022-09-09T15:16:06;4.72;;;0.63;;
55090;SDS011;40985;53.180;5.800;2022-09-09T15:18:34;2.15;;;0.40;;
55090;SDS011;40985;53.180;5.800;2022-09-09T15:21:01;4.30;;;0.35;;
55090;SDS011;40985;53.180;5.800;2022-09-09T15:23:33;2.13;;;0.35;;
55090;SDS011;40985;53.180;5.800;2022-09-09T15:26:02;2.85;;;0.45;;
55090;SDS011;40985;53.180;5.800;2022-09-09T15:28:28;3.22;;;1.55;;
55090;SDS011;40985;53.180;5.800;2022-09-09T15:30:54;5.07;;;2.08;;
55090;SDS011;40985;53.180;5.800;2022-09-09T15:33:22;4.80;;;2.00;;
55090;SDS011;40985;53.180;5.800;2022-09-09T15:35:48;7.15;;;2.10;;
55090;SDS011;40985;53.180;5.800;2022-09-09T15:38:15;7.68;;;2.45;;
55090;SDS011;40985;53.180;5.800;2022-09-09T15:40:42;3.65;;;2.10;;
55090;SDS011;40985;53.180;5.800;2022-09-09T15:43:08;4.70;;;1.63;;
55090;SDS011;40985;53.180;5.800;2022-09-09T15:45:34;4.70;;;2.30;;
55090;SDS011;40985;53.180;5.800;2022-09-09T15:48:00;3.80;;;2.13;;
55090;SDS011;40985;53.180;5.800;2022-09-09T15:50:27;3.67;;;1.75;;
55090;SDS011;40985;53.180;5.800;2022-09-09T15:52:56;5.90;;;2.22;;
55090;SDS011;40985;53.180;5.800;2022-09-09T15:55:22;4.97;;;2.10;;
55090;SDS011;40985;53.180;5.800;2022-09-09T15:57:50;3.30;;;1.92;;
55090;SDS011;40985;53.180;5.800;2022-09-09T16:00:17;4.05;;;2.05;;
55090;SDS011;40985;53.180;5.800;2022-09-09T16:02:45;5.13;;;2.03;;
55090;SDS011;40985;53.180;5.800;2022-09-09T16:05:14;4.45;;;2.33;;
55090;SDS011;40985;53.180;5.800;2022-09-09T16:07:40;4.13;;;1.63;;
55090;SDS011;40985;53.180;5.800;2022-09-09T16:10:07;3.05;;;2.00;;
55090;SDS011;40985;53.180;5.800;2022-09-09T16:12:33;4.57;;;2.05;;
55090;SDS011;40985;53.180;5.800;2022-09-09T16:14:59;5.30;;;1.80;;
55090;SDS011;40985;53.180;5.800;2022-09-09T16:17:26;3.70;;;1.35;;
55090;SDS011;40985;53.180;5.800;2022-09-09T16:19:52;3.53;;;1.48;;
55090;SDS011;40985;53.180;5.800;2022-09-09T16:22:19;3.83;;;1.35;;
55090;SDS011;40985;53.180;5.800;2022-09-09T16:24:45;5.43;;;1.50;;
55090;SDS011;40985;53.180;5.800;2022-09-09T16:27:10;3.65;;;1.20;;
55090;SDS011;40985;53.180;5.800;2022-09-09T16:29:36;4.85;;;1.50;;
55090;SDS011;40985;53.180;5.800;2022-09-09T16:32:02;3.75;;;1.20;;
55090;SDS011;40985;53.180;5.800;2022-09-09T16:34:28;4.72;;;1.52;;
55090;SDS011;40985;53.180;5.800;2022-09-09T16:36:54;5.70;;;1.27;;
55090;SDS011;40985;53.180;5.800;2022-09-09T16:39:20;2.70;;;1.10;;
55090;SDS011;40985;53.180;5.800;2022-09-09T16:41:46;1.80;;;1.10;;
55090;SDS011;40985;53.180;5.800;2022-09-09T16:44:13;1.83;;;0.88;;
55090;SDS011;40985;53.180;5.800;2022-09-09T16:46:42;1.70;;;1.25;;
55090;SDS011;40985;53.180;5.800;2022-09-09T16:49:09;1.98;;;0.70;;
55090;SDS011;40985;53.180;5.800;2022-09-09T16:51:38;3.25;;;1.40;;
55090;SDS011;40985;53.180;5.800;2022-09-09T16:54:06;3.35;;;1.23;;
55090;SDS011;40985;53.180;5.800;2022-09-09T16:56:33;3.05;;;1.10;;
55090;SDS011;40985;53.180;5.800;2022-09-09T16:59:07;3.97;;;1.23;;
55090;SDS011;40985;53.180;5.800;2022-09-09T17:01:35;4.72;;;1.25;;
55090;SDS011;40985;53.180;5.800;2022-09-09T17:04:04;8.75;;;1.60;;
55090;SDS011;40985;53.180;5.800;2022-09-09T17:06:32;6.45;;;1.77;;
55090;SDS011;40985;53.180;5.800;2022-09-09T17:09:07;1.98;;;0.40;;
55090;SDS011;40985;53.180;5.800;2022-09-09T17:11:35;4.07;;;0.55;;
55090;SDS011;40985;53.180;5.800;2022-09-09T17:14:02;7.75;;;0.90;;
55090;SDS011;40985;53.180;5.800;2022-09-09T17:16:29;1.27;;;0.40;;
55090;SDS011;40985;53.180;5.800;2022-09-09T17:18:57;4.20;;;0.55;;
55090;SDS011;40985;53.180;5.800;2022-09-09T17:21:29;3.45;;;0.88;;
55090;SDS011;40985;53.180;5.800;2022-09-09T17:23:57;3.75;;;0.70;;
55090;SDS011;40985;53.180;5.800;2022-09-09T17:26:25;2.45;;;0.75;;